Rock Lake, North Dakota
Current Conditions -  °F | °C
As of 11:35 AM on Monday 22 Dec 2014 (Local Time) from K06D Reporting Station
Light Snow Light Snow  
Wind Chill: 20°   Ceiling: 300
Heat Index: 28°   Visibility: 3mi
Dew Point: 28°   Wind: 9mph
Humidity: 100%   Direction: 30°NNE
Pressure: 29.56"   Gusts: NA
Location:  48.8584°N, 99.1311°W
Report Text: K06D 221735Z AUTO 03008KT 3SM -SN OVC003 M02/M02 A2956 RMK AO2 P0001
Loading
Personal Weather Stations






























Interactive Weather Map New forecast layout! Learn more

10-Day Weather Forecast

Advertisements
Track Severe Weather on mobile